createdAt,value
2022-09-01T00:16:04.759Z,83.80
2022-09-01T00:18:33.383Z,84.40
2022-09-01T00:21:04.578Z,84.40
2022-09-01T00:23:38.425Z,84.30
2022-09-01T00:36:37.150Z,85.00
2022-09-01T01:02:11.266Z,87.00
2022-09-01T01:04:46.297Z,87.50
2022-09-01T01:14:32.744Z,87.80
2022-09-01T01:40:24.941Z,88.40
2022-09-01T01:42:59.996Z,88.40
2022-09-01T01:45:33.696Z,88.30
2022-09-01T01:48:06.103Z,88.20
2022-09-01T01:50:35.700Z,88.30
2022-09-01T01:53:11.082Z,88.20
2022-09-01T01:55:41.853Z,88.30
2022-09-01T01:58:12.376Z,88.30
2022-09-01T02:03:38.338Z,88.20
2022-09-01T02:06:09.742Z,88.30
2022-09-01T02:08:39.257Z,88.30
2022-09-01T02:11:09.175Z,88.20
2022-09-01T02:13:44.669Z,89.00
2022-09-01T02:16:15.079Z,88.20
2022-09-01T02:18:48.223Z,88.10
2022-09-01T02:21:20.451Z,88.00
2022-09-01T02:23:50.303Z,87.90
2022-09-01T02:26:18.997Z,87.80
2022-09-01T02:28:55.729Z,87.90
2022-09-01T02:31:37.518Z,87.70
2022-09-01T02:34:10.746Z,87.60
2022-09-01T02:36:44.316Z,87.70
2022-09-01T02:39:12.366Z,87.70
2022-09-01T02:41:43.442Z,87.80
2022-09-01T02:44:14.784Z,87.70
2022-09-01T02:46:45.526Z,87.20
2022-09-01T02:49:19.849Z,87.50
2022-09-01T02:51:53.956Z,87.60
2022-09-01T02:54:32.547Z,87.40
2022-09-01T02:57:00.981Z,87.30
2022-09-01T02:59:30.563Z,88.00
2022-09-01T03:02:00.085Z,87.30
2022-09-01T03:04:35.325Z,87.10
2022-09-01T03:07:04.239Z,87.10
2022-09-01T03:09:33.778Z,87.10
2022-09-01T03:12:01.965Z,87.10
2022-09-01T03:14:30.021Z,87.10
2022-09-01T03:17:00.655Z,87.10
2022-09-01T03:19:37.092Z,87.00
2022-09-01T03:22:05.213Z,87.00
2022-09-01T03:27:17.919Z,86.80
2022-09-01T03:29:45.873Z,86.80
2022-09-01T03:32:15.246Z,86.90
2022-09-01T03:34:43.668Z,86.80
2022-09-01T03:37:12.233Z,86.70
2022-09-01T03:39:48.047Z,87.40
2022-09-01T03:42:25.934Z,86.60
2022-09-01T03:44:55.174Z,86.50
2022-09-01T03:47:27.468Z,86.30
2022-09-01T03:49:59.877Z,86.30
2022-09-01T03:52:27.862Z,86.30
2022-09-01T03:54:55.887Z,86.30
2022-09-01T03:57:37.534Z,86.20
2022-09-01T04:00:26.176Z,86.00
2022-09-01T04:03:00.534Z,86.10
2022-09-01T04:05:37.782Z,86.10
2022-09-01T04:08:08.106Z,86.00
2022-09-01T04:10:38.290Z,86.50
2022-09-01T04:13:11.755Z,86.30
2022-09-01T04:15:41.126Z,86.40
2022-09-01T04:18:10.717Z,86.40
2022-09-01T04:20:59.699Z,86.40
2022-09-01T04:23:33.973Z,86.30
2022-09-01T04:26:09.034Z,86.30
2022-09-01T04:28:40.297Z,86.20
2022-09-01T04:31:26.782Z,86.50
2022-09-01T04:33:56.268Z,86.40
2022-09-01T04:36:27.483Z,86.40
2022-09-01T04:39:08.746Z,86.40
2022-09-01T04:41:39.747Z,86.20
2022-09-01T04:44:16.775Z,86.10
2022-09-01T04:46:55.603Z,86.00
2022-09-01T04:49:33.738Z,85.90
2022-09-01T04:52:01.815Z,85.90
2022-09-01T04:54:35.732Z,85.70
2022-09-01T04:57:04.683Z,85.60
2022-09-01T04:59:33.039Z,85.50
2022-09-01T05:02:01.958Z,85.40
2022-09-01T05:04:40.320Z,85.30
2022-09-01T05:07:11.284Z,85.50
2022-09-01T05:09:39.639Z,85.20
2022-09-01T05:12:15.897Z,85.10
2022-09-01T05:14:47.181Z,84.90
2022-09-01T05:17:17.340Z,84.90
2022-09-01T05:19:51.144Z,84.90
2022-09-01T05:22:23.107Z,84.90
2022-09-01T05:24:54.960Z,84.90
2022-09-01T05:27:24.021Z,84.90
2022-09-01T05:29:53.186Z,84.90
2022-09-01T05:32:26.190Z,84.90
2022-09-01T05:34:57.013Z,84.80
2022-09-01T05:37:28.813Z,84.80
2022-09-01T05:39:57.759Z,84.60
2022-09-01T05:42:27.568Z,84.60
2022-09-01T05:44:55.722Z,84.80
2022-09-01T05:47:37.425Z,84.60
2022-09-01T05:50:13.640Z,85.20
2022-09-01T05:52:50.936Z,84.30
2022-09-01T05:55:19.070Z,84.40
2022-09-01T05:57:48.200Z,84.30
2022-09-01T06:00:18.098Z,84.30
2022-09-01T06:02:47.102Z,84.40
2022-09-01T06:05:16.643Z,84.20
2022-09-01T06:07:44.681Z,84.10
2022-09-01T06:10:17.437Z,83.70
2022-09-01T06:12:53.981Z,83.70
2022-09-01T06:15:27.019Z,83.60
2022-09-01T06:18:01.176Z,83.50
2022-09-01T06:20:33.071Z,83.40
2022-09-01T06:23:07.501Z,83.30
2022-09-01T06:25:39.646Z,83.60
2022-09-01T06:28:08.555Z,83.40
2022-09-01T06:30:45.639Z,83.30
2022-09-01T06:33:19.410Z,83.20
2022-09-01T06:35:48.988Z,83.00
2022-09-01T06:38:17.584Z,82.80
2022-09-01T06:40:45.874Z,82.70
2022-09-01T06:43:16.364Z,82.50
2022-09-01T06:45:51.519Z,82.40
2022-09-01T06:48:20.791Z,82.20
2022-09-01T06:53:47.501Z,81.70
2022-09-01T06:56:18.669Z,81.40
2022-09-01T06:58:49.007Z,81.00
2022-09-01T07:01:21.187Z,80.80
2022-09-01T07:03:52.466Z,80.50
2022-09-01T07:09:22.249Z,79.90
2022-09-01T07:12:37.349Z,79.40
2022-09-01T07:17:42.744Z,78.60
2022-09-01T07:20:28.758Z,78.60
2022-09-01T07:23:03.811Z,78.20
2022-09-01T07:25:48.385Z,77.90
2022-09-01T07:28:36.049Z,77.50
2022-09-01T07:34:38.446Z,77.10
2022-09-01T07:39:51.808Z,76.80
2022-09-01T07:45:27.373Z,76.90
2022-09-01T07:47:56.422Z,77.10
2022-09-01T07:53:22.566Z,76.80
2022-09-01T07:55:53.140Z,76.20
2022-09-01T07:58:25.163Z,75.80
2022-09-01T08:00:54.482Z,75.50
2022-09-01T08:03:26.123Z,75.20
2022-09-01T08:05:57.886Z,74.80
2022-09-01T08:08:29.240Z,74.60
2022-09-01T08:11:06.084Z,74.60
2022-09-01T08:16:18.054Z,74.70
2022-09-01T08:18:48.748Z,75.40
2022-09-01T08:21:18.814Z,74.30
2022-09-01T08:23:47.913Z,74.00
2022-09-01T08:26:22.877Z,73.90
2022-09-01T08:28:57.947Z,73.90
2022-09-01T08:31:30.812Z,73.60
2022-09-01T08:34:00.107Z,72.70
2022-09-01T08:36:28.541Z,71.80
2022-09-01T08:38:56.582Z,71.20
2022-09-01T08:41:39.074Z,70.80
2022-09-01T08:44:23.925Z,70.80
2022-09-01T08:46:57.350Z,70.70
2022-09-01T08:49:27.585Z,69.40
2022-09-01T08:52:02.430Z,68.70
2022-09-01T08:54:38.560Z,68.70
2022-09-01T08:57:15.878Z,68.30
2022-09-01T08:59:49.915Z,67.80
2022-09-01T09:02:32.000Z,66.70
2022-09-01T09:05:22.130Z,65.30
2022-09-01T09:08:09.146Z,64.30
2022-09-01T09:10:50.514Z,64.00
2022-09-01T09:13:41.448Z,64.30
2022-09-01T09:16:13.384Z,64.10
2022-09-01T09:19:00.610Z,63.50
2022-09-01T09:21:40.722Z,62.80
2022-09-01T09:24:19.344Z,61.00
2022-09-01T09:26:50.674Z,60.20
2022-09-01T09:29:20.739Z,60.90
2022-09-01T09:31:50.678Z,59.70
2022-09-01T09:34:34.282Z,59.30
2022-09-01T09:37:23.529Z,58.50
2022-09-01T09:40:15.247Z,57.80
2022-09-01T09:43:05.955Z,57.60
2022-09-01T09:45:37.966Z,58.00
2022-09-01T09:48:24.008Z,57.10
2022-09-01T09:50:58.211Z,56.70
2022-09-01T09:53:30.453Z,56.80
2022-09-01T09:56:05.504Z,56.50
2022-09-01T09:58:39.523Z,56.30
2022-09-01T10:01:17.412Z,56.20
2022-09-01T10:03:50.323Z,55.40
2022-09-01T10:06:33.087Z,54.40
2022-09-01T10:09:02.684Z,53.70
2022-09-01T10:11:44.273Z,53.30
2022-09-01T10:14:35.354Z,52.60
2022-09-01T10:17:16.223Z,52.20
2022-09-01T10:19:54.235Z,52.40
2022-09-01T10:22:27.966Z,52.30
2022-09-01T10:24:58.658Z,52.70
2022-09-01T10:27:36.506Z,52.10
2022-09-01T10:30:12.627Z,51.00
2022-09-01T10:32:52.524Z,51.20
2022-09-01T10:35:29.842Z,50.40
2022-09-01T10:38:00.331Z,49.90
2022-09-01T10:40:43.923Z,50.20
2022-09-01T10:43:37.855Z,50.20
2022-09-01T10:46:50.852Z,50.20
2022-09-01T10:49:51.971Z,49.60
2022-09-01T10:52:56.999Z,48.30
2022-09-01T10:55:30.181Z,48.10
2022-09-01T11:01:15.496Z,47.70
2022-09-01T11:03:57.159Z,47.10
2022-09-01T11:07:12.235Z,47.10
2022-09-01T11:09:43.732Z,47.10
2022-09-01T11:12:40.117Z,46.50
2022-09-01T11:15:35.597Z,46.70
2022-09-01T11:18:08.820Z,47.00
2022-09-01T11:20:41.799Z,47.20
2022-09-01T11:23:14.946Z,46.80
2022-09-01T11:25:46.542Z,46.60
2022-09-01T11:28:40.061Z,47.20
2022-09-01T11:31:32.278Z,47.40
2022-09-01T11:34:16.691Z,46.30
2022-09-01T11:36:56.648Z,46.20
2022-09-01T11:39:42.374Z,46.20
2022-09-01T11:42:22.905Z,46.60
2022-09-01T11:44:58.782Z,47.20
2022-09-01T11:47:30.055Z,46.80
2022-09-01T11:50:00.941Z,46.30
2022-09-01T11:52:37.633Z,45.90
2022-09-01T11:55:08.164Z,46.40
2022-09-01T11:57:40.707Z,46.40
2022-09-01T12:00:12.307Z,46.30
2022-09-01T12:02:46.462Z,47.10
2022-09-01T12:05:25.549Z,47.00
2022-09-01T12:08:29.853Z,47.10
2022-09-01T12:14:54.959Z,47.50
2022-09-01T12:17:28.419Z,47.50
2022-09-01T12:20:02.540Z,46.80
2022-09-01T12:22:32.207Z,45.70
2022-09-01T12:25:00.785Z,46.10
2022-09-01T12:27:28.798Z,47.20
2022-09-01T12:29:58.899Z,46.90
2022-09-01T12:32:33.789Z,46.40
2022-09-01T12:35:10.962Z,46.50
2022-09-01T12:37:39.669Z,46.50
2022-09-01T12:40:25.432Z,46.00
2022-09-01T12:42:55.035Z,47.10
2022-09-01T12:45:41.708Z,46.30
2022-09-01T12:48:31.526Z,45.90
2022-09-01T12:51:03.459Z,47.30
2022-09-01T12:53:36.741Z,46.30
2022-09-01T12:56:20.929Z,46.00
2022-09-01T12:58:53.830Z,45.60
2022-09-01T13:01:29.875Z,46.70
2022-09-01T13:04:30.055Z,45.80
2022-09-01T13:07:04.230Z,44.30
2022-09-01T13:09:35.162Z,44.00
2022-09-01T13:12:18.188Z,44.40
2022-09-01T13:14:46.309Z,44.30
2022-09-01T13:17:15.969Z,43.90
2022-09-01T13:19:44.279Z,44.10
2022-09-01T13:22:14.204Z,44.10
2022-09-01T13:24:42.271Z,44.60
2022-09-01T13:27:20.800Z,44.70
2022-09-01T13:29:53.343Z,44.40
2022-09-01T13:32:24.001Z,44.80
2022-09-01T13:34:53.995Z,44.50
2022-09-01T13:37:31.691Z,44.40
2022-09-01T13:39:59.710Z,44.60
2022-09-01T13:42:28.752Z,43.30
2022-09-01T13:44:59.997Z,43.30
2022-09-01T13:47:30.517Z,43.10
2022-09-01T13:50:09.298Z,43.30
2022-09-01T13:52:39.756Z,43.40
2022-09-01T13:55:09.585Z,42.70
2022-09-01T13:57:37.606Z,42.20
2022-09-01T14:00:10.968Z,42.30
2022-09-01T14:02:43.041Z,42.40
2022-09-01T14:05:11.249Z,42.40
2022-09-01T14:07:39.311Z,42.50
2022-09-01T14:10:08.943Z,42.30
2022-09-01T14:12:37.598Z,42.30
2022-09-01T14:15:17.047Z,41.90
2022-09-01T14:17:48.057Z,42.10
2022-09-01T14:20:19.413Z,41.80
2022-09-01T14:22:50.501Z,41.30
2022-09-01T14:25:25.692Z,40.90
2022-09-01T14:27:53.926Z,40.80
2022-09-01T14:30:27.859Z,40.50
2022-09-01T14:33:01.237Z,40.60
2022-09-01T14:35:33.702Z,41.10
2022-09-01T14:38:05.301Z,41.60
2022-09-01T14:40:33.817Z,41.00
2022-09-01T14:43:01.996Z,40.20
2022-09-01T14:45:30.222Z,40.50
2022-09-01T14:48:15.300Z,40.50
2022-09-01T14:50:48.766Z,39.70
2022-09-01T14:53:16.885Z,40.20
2022-09-01T14:55:49.637Z,40.00
2022-09-01T14:58:19.609Z,39.50
2022-09-01T15:00:48.054Z,39.70
2022-09-01T15:03:22.654Z,39.30
2022-09-01T15:05:57.094Z,38.70
2022-09-01T15:08:25.394Z,38.80
2022-09-01T15:10:56.989Z,38.50
2022-09-01T15:13:31.022Z,38.90
2022-09-01T15:15:59.808Z,38.50
2022-09-01T15:18:27.871Z,38.00
2022-09-01T15:21:00.567Z,37.80
2022-09-01T15:23:33.912Z,37.80
2022-09-01T15:26:02.000Z,37.70
2022-09-01T15:28:30.082Z,37.30
2022-09-01T15:30:59.972Z,37.40
2022-09-01T15:33:28.153Z,37.30
2022-09-01T15:35:57.565Z,37.60
2022-09-01T15:38:30.343Z,37.80
2022-09-01T15:41:01.729Z,38.10
2022-09-01T15:43:30.370Z,37.90
2022-09-01T15:45:59.542Z,37.70
2022-09-01T15:48:28.885Z,37.90
2022-09-01T15:51:17.654Z,37.60
2022-09-01T15:53:45.710Z,37.70
2022-09-01T15:56:13.724Z,37.40
2022-09-01T15:59:00.931Z,37.60
2022-09-01T16:01:31.581Z,37.60
2022-09-01T16:04:01.219Z,37.60
2022-09-01T16:06:30.692Z,37.90
2022-09-01T16:08:59.123Z,38.30
2022-09-01T16:11:28.074Z,38.40
2022-09-01T16:13:57.001Z,38.60
2022-09-01T16:16:42.697Z,38.60
2022-09-01T16:19:25.517Z,38.70
2022-09-01T16:22:02.626Z,38.70
2022-09-01T16:24:41.305Z,38.90
2022-09-01T16:27:13.246Z,39.20
2022-09-01T16:29:46.386Z,39.20
2022-09-01T16:32:15.558Z,39.30
2022-09-01T16:34:48.056Z,39.60
2022-09-01T16:37:42.248Z,39.80
2022-09-01T16:40:20.357Z,39.60
2022-09-01T16:42:57.718Z,39.90
2022-09-01T16:45:42.895Z,40.20
2022-09-01T16:48:19.103Z,40.20
2022-09-01T16:50:55.512Z,40.40
2022-09-01T16:53:43.015Z,40.50
2022-09-01T16:56:18.784Z,40.90
2022-09-01T16:59:02.301Z,41.20
2022-09-01T17:01:42.182Z,41.20
2022-09-01T17:04:29.131Z,41.00
2022-09-01T17:07:08.859Z,40.80
2022-09-01T17:09:44.153Z,41.00
2022-09-01T17:12:30.842Z,40.90
2022-09-01T17:15:02.078Z,41.20
2022-09-01T17:17:36.870Z,41.10
2022-09-01T17:20:11.397Z,41.20
2022-09-01T17:22:46.788Z,41.20
2022-09-01T17:25:28.757Z,41.30
2022-09-01T17:28:02.569Z,41.50
2022-09-01T17:30:36.187Z,41.60
2022-09-01T17:33:18.601Z,41.40
2022-09-01T17:36:01.696Z,41.70
2022-09-01T17:38:52.293Z,41.40
2022-09-01T17:41:30.377Z,41.40
2022-09-01T17:44:07.101Z,42.80
2022-09-01T17:46:41.650Z,42.40
2022-09-01T17:49:17.385Z,42.70
2022-09-01T17:51:57.358Z,42.00
2022-09-01T17:54:34.786Z,41.80
2022-09-01T17:57:11.274Z,41.80
2022-09-01T17:59:46.385Z,41.90
2022-09-01T18:02:32.835Z,42.30
2022-09-01T18:05:09.410Z,42.60
2022-09-01T18:08:01.226Z,42.90
2022-09-01T18:10:42.917Z,43.20
2022-09-01T18:13:30.848Z,43.40
2022-09-01T18:16:22.119Z,43.60
2022-09-01T18:18:54.662Z,43.80
2022-09-01T18:21:25.906Z,43.90
2022-09-01T18:24:07.763Z,44.20
2022-09-01T18:26:40.245Z,44.90
2022-09-01T18:29:09.623Z,44.60
2022-09-01T18:32:08.529Z,44.60
2022-09-01T18:34:50.928Z,44.50
2022-09-01T18:37:32.797Z,44.70
2022-09-01T18:40:12.065Z,44.70
2022-09-01T18:42:49.603Z,45.00
2022-09-01T18:45:38.713Z,45.20
2022-09-01T18:48:17.634Z,45.40
2022-09-01T18:50:52.062Z,45.50
2022-09-01T18:53:35.699Z,45.70
2022-09-01T18:56:24.987Z,45.90
2022-09-01T18:59:11.055Z,46.20
2022-09-01T19:01:58.027Z,46.20
2022-09-01T19:04:31.862Z,46.30
2022-09-01T19:07:11.819Z,46.40
2022-09-01T19:10:03.944Z,46.60
2022-09-01T19:12:42.935Z,46.80
2022-09-01T19:15:20.148Z,47.00
2022-09-01T19:18:13.063Z,47.10
2022-09-01T19:20:47.878Z,47.30
2022-09-01T19:23:22.331Z,47.50
2022-09-01T19:25:55.704Z,47.60
2022-09-01T19:28:36.208Z,48.40
2022-09-01T19:31:16.470Z,47.90
2022-09-01T19:33:49.581Z,47.80
2022-09-01T19:36:22.902Z,48.20
2022-09-01T19:38:51.760Z,48.30
2022-09-01T19:41:25.301Z,48.30
2022-09-01T19:43:59.298Z,48.40
2022-09-01T19:46:37.755Z,48.70
2022-09-01T19:49:22.604Z,48.80
2022-09-01T19:52:04.727Z,49.50
2022-09-01T19:54:54.831Z,49.10
2022-09-01T19:57:34.099Z,49.20
2022-09-01T20:00:14.942Z,49.30
2022-09-01T20:02:51.828Z,49.40
2022-09-01T20:05:38.586Z,49.40
2022-09-01T20:08:27.312Z,49.70
2022-09-01T20:11:01.251Z,49.70
2022-09-01T20:14:02.830Z,49.80
2022-09-01T20:16:51.190Z,49.90
2022-09-01T20:19:30.325Z,50.00
2022-09-01T20:22:19.812Z,50.70
2022-09-01T20:25:04.722Z,50.20
2022-09-01T20:27:34.610Z,50.30
2022-09-01T20:30:07.131Z,50.40
2022-09-01T20:32:43.782Z,50.30
2022-09-01T20:35:14.896Z,50.50
2022-09-01T20:37:48.986Z,50.40
2022-09-01T20:40:31.570Z,50.50
2022-09-01T20:43:20.288Z,50.50
2022-09-01T20:45:48.431Z,50.50
2022-09-01T20:48:20.466Z,50.60
2022-09-01T20:51:02.131Z,50.90
2022-09-01T20:54:01.524Z,50.60
2022-09-01T20:56:45.103Z,50.70
2022-09-01T20:59:22.656Z,50.80
2022-09-01T21:01:57.478Z,50.80
2022-09-01T21:04:37.544Z,50.90
2022-09-01T21:07:14.513Z,50.90
2022-09-01T21:09:53.514Z,50.90
2022-09-01T21:12:34.146Z,51.00
2022-09-01T21:15:33.943Z,51.00
2022-09-01T21:18:16.933Z,51.00
2022-09-01T21:20:59.255Z,51.10
2022-09-01T21:23:33.708Z,51.20
2022-09-01T21:26:03.166Z,51.20
2022-09-01T21:34:43.562Z,51.20
2022-09-01T21:37:12.230Z,51.40
2022-09-01T21:39:40.267Z,52.00
2022-09-01T21:42:17.165Z,51.30
2022-09-01T21:44:45.455Z,51.40
2022-09-01T21:47:13.999Z,51.40
2022-09-01T21:49:42.101Z,51.40
2022-09-01T21:52:10.085Z,51.40
2022-09-01T21:54:38.353Z,51.50
2022-09-01T21:57:06.696Z,51.50
2022-09-01T21:59:36.044Z,51.50
2022-09-01T22:02:11.120Z,51.60
2022-09-01T22:04:39.757Z,51.70
2022-09-01T22:07:19.091Z,51.80
2022-09-01T22:09:48.026Z,51.80
2022-09-01T22:12:16.106Z,51.90
2022-09-01T22:14:45.506Z,52.00
2022-09-01T22:17:13.549Z,52.10
2022-09-01T22:19:44.955Z,52.10
2022-09-01T22:22:13.049Z,52.10
2022-09-01T22:24:44.263Z,52.20
2022-09-01T22:27:15.278Z,52.20
2022-09-01T22:29:43.415Z,52.30
2022-09-01T22:32:12.881Z,52.30
2022-09-01T22:34:41.364Z,52.50
2022-09-01T22:37:14.605Z,52.60
2022-09-01T22:39:42.902Z,52.60
2022-09-01T22:42:10.900Z,52.60
2022-09-01T22:44:38.851Z,52.70
2022-09-01T22:47:07.653Z,52.80
2022-09-01T22:49:36.980Z,53.00
2022-09-01T22:52:05.031Z,53.00
2022-09-01T22:54:36.213Z,53.70
2022-09-01T22:57:04.660Z,53.20
2022-09-01T22:59:35.781Z,53.30
2022-09-01T23:02:09.644Z,53.30
2022-09-01T23:04:40.457Z,53.40
2022-09-01T23:07:08.537Z,53.50
2022-09-01T23:09:37.513Z,53.60
2022-09-01T23:12:05.911Z,53.60
2022-09-01T23:14:40.301Z,53.70
2022-09-01T23:17:11.123Z,53.70
2022-09-01T23:19:40.552Z,53.80
2022-09-01T23:22:08.594Z,53.80
2022-09-01T23:24:36.537Z,53.80
2022-09-01T23:27:06.623Z,53.90
2022-09-01T23:29:34.802Z,53.90
2022-09-01T23:32:02.936Z,53.90
2022-09-01T23:34:31.057Z,54.00
2022-09-01T23:37:00.391Z,54.10
2022-09-01T23:39:28.423Z,54.10
2022-09-01T23:41:58.924Z,54.10
2022-09-01T23:44:26.945Z,54.10
2022-09-01T23:46:54.937Z,54.20
2022-09-01T23:49:22.961Z,54.30
2022-09-01T23:51:55.753Z,54.40
2022-09-01T23:54:25.163Z,54.40
2022-09-01T23:56:56.203Z,54.40
2022-09-01T23:59:27.290Z,54.50
